Time;durP1;ratioP1;P1;durP2;ratioP2;P2;SDS_P1;SDS_P2;PMS_P1;PMS_P2;Temp;Humidity;BMP_temperature;BMP_pressure;BME280_temperature;BME280_humidity;BME280_pressure;Samples;Min_cycle;Max_cycle;Signal;HPM_P1;HPM_P2
2023/12/03 00:01:46;;;;;;;34.17;17.70;;;0.90;99.90;;;;;;5075170;28;20048;-70
2023/12/03 00:04:12;;;;;;;28.75;15.93;;;0.90;99.90;;;;;;5075112;28;20044;-70
2023/12/03 00:06:38;;;;;;;31.23;16.92;;;0.90;99.90;;;;;;5075297;28;20052;-70
2023/12/03 00:09:04;;;;;;;38.63;18.83;;;0.90;99.90;;;;;;5075348;28;20119;-70
2023/12/03 00:11:29;;;;;;;31.35;16.38;;;0.90;99.90;;;;;;5074843;28;20527;-70
2023/12/03 00:13:55;;;;;;;41.78;18.20;;;0.90;99.90;;;;;;5076413;28;20040;-70
2023/12/03 00:16:21;;;;;;;33.13;17.17;;;0.90;99.90;;;;;;5076408;28;20048;-70
2023/12/03 00:18:47;;;;;;;26.52;15.05;;;0.90;99.90;;;;;;5074741;28;20036;-70
2023/12/03 00:21:13;;;;;;;28.33;15.25;;;0.80;99.90;;;;;;5076019;28;20036;-70
2023/12/03 00:23:38;;;;;;;36.55;17.27;;;0.90;99.90;;;;;;5074852;28;20048;-70
2023/12/03 00:26:04;;;;;;;30.92;16.55;;;0.90;99.90;;;;;;5073769;28;20052;-70
2023/12/03 00:28:30;;;;;;;25.00;14.75;;;0.90;99.90;;;;;;5075016;28;20382;-70
2023/12/03 00:30:55;;;;;;;31.17;15.95;;;0.90;99.90;;;;;;5073640;28;20032;-70
2023/12/03 00:33:21;;;;;;;31.02;16.58;;;0.90;99.90;;;;;;5074867;28;20493;-70
2023/12/03 00:35:46;;;;;;;27.95;16.33;;;1.00;99.90;;;;;;5073637;28;20048;-70
2023/12/03 00:38:12;;;;;;;26.48;15.10;;;1.00;99.90;;;;;;5074849;28;20112;-70
2023/12/03 00:40:39;;;;;;;28.40;15.93;;;1.10;99.90;;;;;;5074356;28;20459;-70
2023/12/03 00:43:04;;;;;;;26.17;15.55;;;1.10;99.90;;;;;;5074792;28;20072;-70
2023/12/03 00:45:30;;;;;;;28.30;15.40;;;1.20;99.90;;;;;;5073221;28;20133;-70
2023/12/03 00:47:55;;;;;;;28.05;15.02;;;1.20;99.90;;;;;;5074393;28;20094;-70
2023/12/03 00:50:21;;;;;;;27.58;14.63;;;1.20;99.90;;;;;;5073317;28;20044;-70
2023/12/03 00:52:47;;;;;;;27.48;14.55;;;1.20;99.90;;;;;;5073061;28;20444;-70
2023/12/03 00:55:12;;;;;;;24.67;14.57;;;1.20;99.90;;;;;;5073326;28;20044;-70
2023/12/03 00:57:38;;;;;;;23.58;14.07;;;1.20;99.90;;;;;;5074260;28;20432;-70
2023/12/03 01:00:04;;;;;;;22.48;13.65;;;1.20;99.90;;;;;;5056283;28;20059;-70
2023/12/03 01:02:30;;;;;;;22.67;13.82;;;1.30;99.90;;;;;;5056252;28;20044;-70
2023/12/03 01:04:55;;;;;;;20.90;12.68;;;1.30;99.90;;;;;;5074463;28;20033;-70
2023/12/03 01:07:21;;;;;;;23.88;13.63;;;1.30;99.90;;;;;;5072945;28;20044;-70
2023/12/03 01:09:46;;;;;;;23.60;12.95;;;1.30;99.90;;;;;;5074354;28;20072;-70
2023/12/03 01:12:12;;;;;;;22.08;13.25;;;1.30;99.90;;;;;;5072906;28;20396;-70
2023/12/03 01:14:37;;;;;;;24.95;13.13;;;1.30;99.90;;;;;;5072814;28;20521;-70
2023/12/03 01:17:03;;;;;;;22.83;13.70;;;1.30;99.90;;;;;;5074278;28;20051;-70
2023/12/03 01:19:29;;;;;;;19.25;12.40;;;1.30;99.90;;;;;;5073915;28;20036;-70
2023/12/03 01:21:54;;;;;;;20.40;12.60;;;1.30;99.90;;;;;;5036207;28;1055899;-70
2023/12/03 01:24:20;;;;;;;22.20;13.23;;;1.40;99.90;;;;;;5075156;28;20799;-70
2023/12/03 01:26:45;;;;;;;23.10;13.70;;;1.30;99.90;;;;;;5073884;28;20048;-70
2023/12/03 01:29:12;;;;;;;25.42;14.18;;;1.30;99.90;;;;;;5073431;28;20171;-70
2023/12/03 01:31:37;;;;;;;23.42;13.98;;;1.30;99.90;;;;;;5073412;28;20040;-70
2023/12/03 01:34:03;;;;;;;24.33;14.55;;;1.30;99.90;;;;;;5073678;28;20037;-70
2023/12/03 01:36:28;;;;;;;26.10;14.13;;;1.30;99.90;;;;;;5073357;28;20406;-70
2023/12/03 01:38:54;;;;;;;26.67;14.23;;;1.30;99.90;;;;;;5073522;28;20086;-70
2023/12/03 01:41:20;;;;;;;30.50;15.10;;;1.40;99.90;;;;;;5073301;28;20408;-70
2023/12/03 01:43:53;;;;;;;24.90;14.43;;;1.40;99.90;;;;;;5074781;28;20039;-70
2023/12/03 01:46:20;;;;;;;32.88;13.63;;;1.40;99.90;;;;;;5074531;28;20446;-70
2023/12/03 01:48:47;;;;;;;26.58;15.27;;;1.50;99.90;;;;;;5074240;28;20551;-70
2023/12/03 01:51:13;;;;;;;39.63;15.75;;;1.50;99.90;;;;;;5072997;28;20094;-70
2023/12/03 01:53:41;;;;;;;34.95;15.43;;;1.50;99.90;;;;;;5072312;28;20041;-70
2023/12/03 01:56:08;;;;;;;41.75;15.15;;;1.50;99.90;;;;;;5073229;28;20036;-70
2023/12/03 01:58:34;;;;;;;30.73;15.95;;;1.60;99.90;;;;;;5073136;28;20128;-70
2023/12/03 02:01:00;;;;;;;25.73;14.23;;;1.50;99.90;;;;;;5074335;28;20040;-70
2023/12/03 02:03:26;;;;;;;29.85;13.52;;;1.50;99.90;;;;;;5072811;28;20037;-70
2023/12/03 02:06:09;;;;;;;72.35;16.95;;;1.60;99.90;;;;;;5072808;28;20048;-70
2023/12/03 02:08:35;;;;;;;153.45;18.30;;;1.60;99.90;;;;;;5072781;28;20098;-70
2023/12/03 02:11:02;;;;;;;112.65;18.23;;;1.60;99.90;;;;;;5072629;28;20044;-70
2023/12/03 02:13:32;;;;;;;142.65;18.15;;;1.60;99.90;;;;;;5074137;28;20044;-70
2023/12/03 02:15:57;;;;;;;143.32;17.83;;;1.60;99.90;;;;;;5074117;28;20040;-70
2023/12/03 02:18:24;;;;;;;101.75;15.77;;;1.60;99.90;;;;;;5074074;28;20033;-70
2023/12/03 02:20:50;;;;;;;189.82;18.80;;;1.50;99.90;;;;;;5072398;28;20082;-70
2023/12/03 02:23:15;;;;;;;113.40;16.52;;;1.60;99.90;;;;;;5072400;28;20071;-70
2023/12/03 02:25:41;;;;;;;161.63;23.00;;;1.50;99.90;;;;;;5072649;28;20129;-71
2023/12/03 02:28:07;;;;;;;134.05;19.50;;;1.50;99.90;;;;;;5073907;28;20036;-70
2023/12/03 02:30:33;;;;;;;274.13;26.33;;;1.50;99.90;;;;;;5072308;28;20046;-70
2023/12/03 02:32:59;;;;;;;249.73;21.65;;;1.50;99.90;;;;;;5055611;28;20043;-70
2023/12/03 02:35:24;;;;;;;298.15;23.80;;;1.40;99.90;;;;;;5072584;28;20508;-70
2023/12/03 02:37:50;;;;;;;334.92;26.08;;;1.40;99.90;;;;;;5072218;28;20044;-70
2023/12/03 02:40:16;;;;;;;288.42;28.13;;;1.40;99.90;;;;;;5072430;28;20039;-70
2023/12/03 02:42:41;;;;;;;271.52;28.55;;;1.40;99.90;;;;;;5072149;28;20587;-70
2023/12/03 02:45:09;;;;;;;187.15;25.67;;;1.30;99.90;;;;;;5072377;28;20044;-70
2023/12/03 02:47:34;;;;;;;218.75;26.15;;;1.30;99.90;;;;;;5072032;28;20562;-70
2023/12/03 02:50:01;;;;;;;187.52;25.45;;;1.30;99.90;;;;;;5071973;28;20036;-70
2023/12/03 02:52:26;;;;;;;191.20;24.38;;;1.30;99.90;;;;;;5071969;28;20517;-70
2023/12/03 02:54:53;;;;;;;205.50;26.20;;;1.20;99.90;;;;;;5072272;28;20087;-70
2023/12/03 02:57:19;;;;;;;175.32;23.90;;;1.20;99.90;;;;;;5073515;28;20037;-70
2023/12/03 02:59:44;;;;;;;287.98;29.48;;;1.20;99.90;;;;;;5072147;28;20128;-70
2023/12/03 03:02:10;;;;;;;230.43;26.05;;;1.20;99.90;;;;;;5071942;28;20047;-70
2023/12/03 03:04:35;;;;;;;345.55;32.53;;;1.20;99.90;;;;;;5072077;28;20045;-70
2023/12/03 03:07:01;;;;;;;247.25;28.58;;;1.20;99.90;;;;;;5071902;28;20074;-71
2023/12/03 03:09:27;;;;;;;405.00;38.88;;;1.10;99.90;;;;;;5071799;28;20044;-70
2023/12/03 03:11:54;;;;;;;254.40;27.48;;;1.10;99.90;;;;;;5073268;28;20117;-70
2023/12/03 03:14:20;;;;;;;382.55;37.03;;;1.10;99.90;;;;;;5073345;28;20111;-70
2023/12/03 03:16:45;;;;;;;332.42;32.10;;;1.10;99.90;;;;;;5072031;28;20449;-70
2023/12/03 03:19:11;;;;;;;309.15;32.35;;;1.20;99.90;;;;;;5073207;28;20111;-70
2023/12/03 03:21:40;;;;;;;285.42;32.70;;;1.10;99.90;;;;;;5071532;28;20573;-70
2023/12/03 03:24:06;;;;;;;100.72;27.92;;;1.20;99.90;;;;;;5071719;28;20040;-71
2023/12/03 03:26:32;;;;;;;57.25;26.00;;;1.20;99.90;;;;;;5071639;28;20440;-70
2023/12/03 03:28:57;;;;;;;39.78;23.40;;;1.20;99.90;;;;;;5073125;28;20045;-70
2023/12/03 03:31:23;;;;;;;60.10;25.77;;;1.20;99.90;;;;;;5071941;28;20040;-70
2023/12/03 03:33:50;;;;;;;48.03;25.55;;;1.30;99.90;;;;;;5071653;28;20449;-70
2023/12/03 03:36:16;;;;;;;41.22;23.83;;;1.30;99.90;;;;;;5071853;28;20405;-70
2023/12/03 03:38:43;;;;;;;40.63;23.38;;;1.30;99.90;;;;;;5071522;28;20044;-70
2023/12/03 03:41:09;;;;;;;47.28;25.60;;;1.30;99.90;;;;;;5071842;28;20037;-70
2023/12/03 03:43:35;;;;;;;47.33;25.08;;;1.40;99.90;;;;;;5071500;28;20040;-70
2023/12/03 03:46:01;;;;;;;48.20;24.83;;;1.40;99.90;;;;;;5072996;28;20040;-70
2023/12/03 03:48:27;;;;;;;37.80;23.40;;;1.40;99.90;;;;;;5072712;28;20032;-70
2023/12/03 03:50:52;;;;;;;35.15;21.40;;;1.40;99.90;;;;;;5073397;28;20033;-71
2023/12/03 03:53:18;;;;;;;45.20;23.67;;;1.40;99.90;;;;;;5071401;28;20397;-71
2023/12/03 03:55:43;;;;;;;41.92;23.98;;;1.40;99.90;;;;;;5071412;28;20516;-71
2023/12/03 03:58:09;;;;;;;55.17;24.95;;;1.40;99.90;;;;;;5071337;28;20043;-71
2023/12/03 04:00:35;;;;;;;62.08;25.42;;;1.40;99.90;;;;;;5071316;28;20068;-71
2023/12/03 04:03:00;;;;;;;85.60;26.40;;;1.40;99.90;;;;;;5071353;28;20143;-71
2023/12/03 04:05:26;;;;;;;84.22;26.75;;;1.40;99.90;;;;;;5071651;28;20044;-71
2023/12/03 04:07:52;;;;;;;121.93;29.48;;;1.40;99.90;;;;;;5071297;28;20036;-71
2023/12/03 04:10:17;;;;;;;160.07;30.27;;;1.40;99.90;;;;;;5071465;28;20041;-71
2023/12/03 04:12:43;;;;;;;175.60;31.33;;;1.40;99.90;;;;;;5071156;28;20443;-71
2023/12/03 04:15:09;;;;;;;292.92;38.30;;;1.40;99.90;;;;;;5071540;28;20041;-71
2023/12/03 04:17:35;;;;;;;291.88;38.97;;;1.50;99.90;;;;;;5076343;28;20028;-71
2023/12/03 04:20:00;;;;;;;340.80;40.63;;;1.40;99.90;;;;;;5076241;28;20489;-71
2023/12/03 04:22:26;;;;;;;414.75;43.80;;;1.40;99.90;;;;;;5074654;28;20088;-71
2023/12/03 04:24:51;;;;;;;330.55;39.10;;;1.40;99.90;;;;;;5074706;28;20044;-71
2023/12/03 04:27:17;;;;;;;228.35;31.38;;;1.40;99.90;;;;;;5074667;28;20089;-71
2023/12/03 04:29:43;;;;;;;264.27;29.85;;;1.40;99.90;;;;;;5074577;28;20040;-71
2023/12/03 04:32:09;;;;;;;355.50;35.38;;;1.40;99.90;;;;;;5076052;28;20068;-71
2023/12/03 04:34:34;;;;;;;258.55;31.85;;;1.40;99.90;;;;;;5076112;28;20036;-71
2023/12/03 04:37:00;;;;;;;223.68;28.85;;;1.40;99.90;;;;;;5074471;28;20037;-71
2023/12/03 04:39:25;;;;;;;299.25;34.08;;;1.40;99.90;;;;;;5074650;28;20051;-71
2023/12/03 04:41:51;;;;;;;304.48;34.70;;;1.40;99.90;;;;;;5074723;28;20051;-71
2023/12/03 04:44:17;;;;;;;303.00;31.92;;;1.30;99.90;;;;;;5075908;28;20123;-71
2023/12/03 04:46:43;;;;;;;418.75;40.58;;;1.40;99.90;;;;;;5074327;28;20075;-71
2023/12/03 04:49:08;;;;;;;264.92;31.25;;;1.30;99.90;;;;;;5074583;28;20158;-71
2023/12/03 04:51:34;;;;;;;205.77;28.35;;;1.30;99.90;;;;;;5074586;28;20036;-71
2023/12/03 04:54:00;;;;;;;271.25;32.65;;;1.30;99.90;;;;;;5074178;28;20101;-71
2023/12/03 04:56:25;;;;;;;289.00;31.70;;;1.30;99.90;;;;;;5074134;28;20033;-71
2023/12/03 04:58:51;;;;;;;380.73;37.15;;;1.20;99.90;;;;;;5074292;28;20037;-71
2023/12/03 05:01:17;;;;;;;390.65;36.03;;;1.30;99.90;;;;;;5074331;28;20047;-71
2023/12/03 05:03:43;;;;;;;351.83;35.65;;;1.30;99.90;;;;;;5073981;28;20040;-71
2023/12/03 05:06:09;;;;;;;387.65;32.92;;;1.20;99.90;;;;;;5075442;28;20047;-71
2023/12/03 05:08:34;;;;;;;261.55;30.27;;;1.20;99.90;;;;;;5075445;28;20074;-71
2023/12/03 05:11:04;;;;;;;295.05;29.52;;;1.30;99.90;;;;;;5073783;28;20428;-71
2023/12/03 05:13:31;;;;;;;309.48;30.75;;;1.30;99.90;;;;;;5073802;28;20053;-71
2023/12/03 05:15:56;;;;;;;313.80;30.13;;;1.30;99.90;;;;;;5073761;28;20047;-71
2023/12/03 05:18:22;;;;;;;359.02;33.90;;;1.30;99.90;;;;;;5073719;28;20032;-71
2023/12/03 05:20:48;;;;;;;206.57;26.73;;;1.30;99.90;;;;;;5075162;28;20032;-71
2023/12/03 05:23:14;;;;;;;249.38;31.75;;;1.30;99.90;;;;;;5073580;28;20126;-71
2023/12/03 05:25:40;;;;;;;325.60;35.90;;;1.30;99.90;;;;;;5074405;28;20082;-71
2023/12/03 05:28:05;;;;;;;280.85;33.55;;;1.20;99.90;;;;;;5073541;28;20043;-71
2023/12/03 05:30:31;;;;;;;164.00;28.45;;;1.20;99.90;;;;;;5074950;28;20036;-71
2023/12/03 05:32:58;;;;;;;172.52;28.60;;;1.20;99.90;;;;;;5074905;28;20497;-71
2023/12/03 05:35:23;;;;;;;207.05;30.80;;;1.20;99.90;;;;;;5073676;28;20072;-70
2023/12/03 05:37:49;;;;;;;136.15;26.88;;;1.10;99.90;;;;;;5074891;28;20117;-70
2023/12/03 05:40:15;;;;;;;209.90;29.73;;;1.20;99.90;;;;;;5073249;28;20071;-71
2023/12/03 05:42:41;;;;;;;197.25;30.15;;;1.10;99.90;;;;;;5073248;28;20072;-71
2023/12/03 05:45:08;;;;;;;158.88;28.17;;;1.10;99.90;;;;;;5056559;28;20043;-71
2023/12/03 05:47:34;;;;;;;211.68;28.42;;;1.20;99.90;;;;;;5073191;28;20048;-71
2023/12/03 05:50:01;;;;;;;162.57;26.45;;;1.20;99.90;;;;;;5074518;28;20041;-71
2023/12/03 05:52:27;;;;;;;201.70;29.50;;;1.10;99.90;;;;;;5074508;28;20072;-71
2023/12/03 05:54:54;;;;;;;196.45;28.33;;;1.10;99.90;;;;;;5056377;28;20079;-71
2023/12/03 05:57:19;;;;;;;207.82;30.45;;;1.10;99.90;;;;;;5074488;28;20032;-71
2023/12/03 05:59:45;;;;;;;136.90;27.25;;;1.10;99.90;;;;;;5072835;28;20119;-71
2023/12/03 06:02:10;;;;;;;111.25;25.88;;;1.10;99.90;;;;;;5074384;28;20033;-71
2023/12/03 06:04:36;;;;;;;131.38;27.08;;;1.10;99.90;;;;;;5072835;28;20474;-71
2023/12/03 06:07:01;;;;;;;182.15;29.67;;;1.20;99.90;;;;;;5074257;28;20040;-71
2023/12/03 06:09:27;;;;;;;113.93;25.88;;;1.10;99.90;;;;;;5074180;28;20040;-71
2023/12/03 06:11:53;;;;;;;122.90;27.00;;;1.20;99.90;;;;;;5072632;28;20079;-71
2023/12/03 06:14:18;;;;;;;132.23;28.10;;;1.20;99.90;;;;;;5074192;28;20101;-71
2023/12/03 06:16:44;;;;;;;84.63;24.45;;;1.20;99.90;;;;;;5072545;28;20039;-71
2023/12/03 06:19:10;;;;;;;103.30;26.42;;;1.20;99.90;;;;;;5074030;28;20043;-71
2023/12/03 06:21:35;;;;;;;106.50;27.20;;;1.20;99.90;;;;;;5072631;28;20044;-71
2023/12/03 06:24:01;;;;;;;83.22;26.15;;;1.30;99.90;;;;;;5072463;28;20455;-71
2023/12/03 06:26:26;;;;;;;77.15;26.40;;;1.30;99.90;;;;;;5073910;28;20040;-71
2023/12/03 06:28:52;;;;;;;61.35;23.95;;;1.40;99.90;;;;;;5073852;28;20123;-71
2023/12/03 06:31:17;;;;;;;61.60;23.98;;;1.40;99.90;;;;;;5072290;28;20106;-71
2023/12/03 06:33:43;;;;;;;73.43;25.13;;;1.50;99.90;;;;;;5073806;28;20107;-71
2023/12/03 06:36:09;;;;;;;94.78;28.02;;;1.50;99.90;;;;;;5072257;28;20041;-71
2023/12/03 06:38:36;;;;;;;62.90;24.65;;;1.50;99.90;;;;;;5071849;28;20036;-71
2023/12/03 06:41:01;;;;;;;73.32;26.58;;;1.50;99.90;;;;;;5073595;28;20119;-71
2023/12/03 06:43:27;;;;;;;72.07;25.83;;;1.60;99.90;;;;;;5072185;28;20119;-71
2023/12/03 06:45:52;;;;;;;70.65;25.38;;;1.60;99.90;;;;;;5073672;28;20040;-71
2023/12/03 06:48:18;;;;;;;67.13;25.98;;;1.60;99.90;;;;;;5073313;28;20037;-71
2023/12/03 06:50:44;;;;;;;65.10;24.27;;;1.60;99.90;;;;;;5073187;28;20040;-71
2023/12/03 06:53:09;;;;;;;77.65;26.40;;;1.60;99.90;;;;;;5071979;28;20051;-71
2023/12/03 06:55:35;;;;;;;72.50;25.17;;;1.70;99.90;;;;;;5072065;28;20097;-71
2023/12/03 06:58:01;;;;;;;71.80;25.42;;;1.70;99.90;;;;;;5072260;28;20071;-71
2023/12/03 07:00:26;;;;;;;78.57;24.85;;;1.60;99.90;;;;;;5071922;28;20528;-71
2023/12/03 07:02:52;;;;;;;82.53;26.38;;;1.70;99.90;;;;;;5071963;28;20040;-71
2023/12/03 07:05:17;;;;;;;90.63;25.90;;;1.60;99.90;;;;;;5055253;28;20189;-71
2023/12/03 07:07:44;;;;;;;75.82;25.83;;;1.60;99.90;;;;;;5072116;28;20044;-71
2023/12/03 07:10:10;;;;;;;77.68;25.02;;;1.60;99.90;;;;;;5072109;28;20052;-71
2023/12/03 07:12:35;;;;;;;108.68;29.30;;;1.60;99.90;;;;;;5071913;28;20402;-71
2023/12/03 07:15:01;;;;;;;104.88;28.05;;;1.60;99.90;;;;;;5071805;28;20047;-71
2023/12/03 07:17:26;;;;;;;62.78;21.25;;;1.60;99.90;;;;;;5071850;28;20068;-71
2023/12/03 07:19:53;;;;;;;77.45;24.25;;;1.60;99.90;;;;;;5071951;28;20086;-71
2023/12/03 07:22:18;;;;;;;66.07;23.15;;;1.50;99.90;;;;;;5071641;28;20055;-71
2023/12/03 07:24:44;;;;;;;80.40;25.55;;;1.60;99.90;;;;;;5071720;28;20123;-71
2023/12/03 07:27:09;;;;;;;93.30;26.75;;;1.50;99.90;;;;;;5073196;28;20106;-71
2023/12/03 07:29:36;;;;;;;114.15;27.05;;;1.50;99.90;;;;;;5072298;28;20037;-71
2023/12/03 07:32:02;;;;;;;114.72;28.75;;;1.60;99.90;;;;;;5071784;28;20032;-71
2023/12/03 07:34:27;;;;;;;92.53;28.38;;;1.50;99.90;;;;;;5071620;28;20037;-71
2023/12/03 07:36:53;;;;;;;107.50;28.67;;;1.50;99.90;;;;;;5072433;28;20032;-71
2023/12/03 07:39:19;;;;;;;92.95;27.42;;;1.50;99.90;;;;;;5071763;28;20393;-71
2023/12/03 07:41:52;;;;;;;91.90;28.98;;;1.60;99.90;;;;;;5071778;28;20452;-71
2023/12/03 07:44:19;;;;;;;122.80;30.45;;;1.60;99.90;;;;;;5073088;28;20105;-71
2023/12/03 07:46:44;;;;;;;81.25;27.77;;;1.50;99.90;;;;;;5071791;28;20119;-71
2023/12/03 07:49:10;;;;;;;81.22;26.83;;;1.60;99.90;;;;;;5071538;28;20537;-71
2023/12/03 07:51:35;;;;;;;80.32;26.42;;;1.60;99.90;;;;;;5074076;28;20125;-71
2023/12/03 07:54:01;;;;;;;70.93;24.60;;;1.60;99.90;;;;;;5075558;28;20063;-71
2023/12/03 07:56:38;;;;;;;76.25;25.85;;;1.60;99.90;;;;;;5076768;28;20041;-71
2023/12/03 07:59:04;;;;;;;70.15;25.17;;;1.70;99.90;;;;;;5075502;28;20033;-70
2023/12/03 08:01:30;;;;;;;65.97;23.73;;;1.70;99.90;;;;;;5075198;28;20489;-71
2023/12/03 08:03:55;;;;;;;70.15;24.95;;;1.70;99.90;;;;;;5075180;28;20083;-70
2023/12/03 08:06:21;;;;;;;60.55;22.73;;;1.70;99.90;;;;;;5075362;28;20041;-71
2023/12/03 08:08:47;;;;;;;69.50;25.67;;;1.60;99.90;;;;;;5076170;28;20519;-71
2023/12/03 08:11:12;;;;;;;64.90;25.35;;;1.80;99.90;;;;;;5075001;28;20115;-71
2023/12/03 08:13:38;;;;;;;64.28;24.00;;;1.70;99.90;;;;;;5076399;28;20044;-71
2023/12/03 08:16:04;;;;;;;59.40;22.73;;;1.70;99.90;;;;;;5075197;28;20037;-70
2023/12/03 08:18:32;;;;;;;65.07;23.98;;;1.70;99.90;;;;;;5074881;28;20032;-71
2023/12/03 08:20:59;;;;;;;69.68;25.35;;;1.80;99.90;;;;;;5076254;28;20032;-71
2023/12/03 08:23:26;;;;;;;55.70;23.38;;;1.80;99.90;;;;;;5074737;28;20047;-71
2023/12/03 08:25:52;;;;;;;55.15;22.40;;;1.80;99.90;;;;;;5074977;28;20036;-71
2023/12/03 08:28:17;;;;;;;60.28;24.35;;;1.80;99.90;;;;;;5074634;28;20127;-71
2023/12/03 08:30:43;;;;;;;55.22;22.95;;;1.90;99.90;;;;;;5076111;28;20036;-71
2023/12/03 08:33:09;;;;;;;52.97;23.77;;;1.90;99.90;;;;;;5074604;28;20041;-70
2023/12/03 08:35:34;;;;;;;56.80;23.38;;;1.90;99.90;;;;;;5074845;28;20040;-70
2023/12/03 08:38:00;;;;;;;56.20;23.80;;;2.00;99.90;;;;;;5076086;28;20511;-70
2023/12/03 08:40:26;;;;;;;53.03;22.45;;;2.00;99.90;;;;;;5058097;28;20041;-71
2023/12/03 08:42:51;;;;;;;54.22;23.13;;;2.00;99.90;;;;;;5075976;28;20428;-71
2023/12/03 08:45:17;;;;;;;50.25;22.85;;;2.00;99.90;;;;;;5074671;28;20067;-71
2023/12/03 08:47:43;;;;;;;54.80;24.65;;;2.00;99.90;;;;;;5074824;28;20041;-70
2023/12/03 08:50:08;;;;;;;53.78;23.55;;;2.00;99.90;;;;;;5075892;28;20032;-70
2023/12/03 08:52:34;;;;;;;55.95;25.13;;;2.00;99.90;;;;;;5075133;28;20485;-71
2023/12/03 08:55:02;;;;;;;51.63;23.13;;;2.00;99.90;;;;;;5075756;28;20032;-71
2023/12/03 08:57:28;;;;;;;57.03;24.10;;;2.00;99.90;;;;;;5075742;28;20068;-71
2023/12/03 08:59:54;;;;;;;48.22;23.80;;;2.00;99.90;;;;;;5074356;28;20063;-71
2023/12/03 09:02:20;;;;;;;52.17;24.42;;;2.10;99.90;;;;;;5074106;28;20048;-71
2023/12/03 09:04:46;;;;;;;51.33;24.95;;;2.00;99.90;;;;;;5074020;28;20083;-71
2023/12/03 09:07:12;;;;;;;54.63;25.85;;;2.10;99.90;;;;;;5074032;28;20072;-71
2023/12/03 09:09:37;;;;;;;51.75;25.63;;;2.10;99.90;;;;;;5057159;28;20041;-71
2023/12/03 09:12:03;;;;;;;50.47;24.60;;;2.10;99.90;;;;;;5073859;28;20037;-71
2023/12/03 09:14:29;;;;;;;50.40;25.38;;;2.10;99.90;;;;;;5075394;28;20048;-70
2023/12/03 09:16:55;;;;;;;55.72;25.88;;;2.10;99.90;;;;;;5073834;28;20493;-70
2023/12/03 09:19:20;;;;;;;45.38;25.30;;;2.10;99.90;;;;;;5075273;28;20082;-71
2023/12/03 09:21:46;;;;;;;51.03;27.33;;;2.10;99.90;;;;;;5075035;28;20430;-70
2023/12/03 09:24:15;;;;;;;52.97;27.10;;;2.10;99.90;;;;;;5073710;28;20044;-70
2023/12/03 09:26:43;;;;;;;51.78;28.55;;;2.10;99.90;;;;;;5073642;28;20075;-70
2023/12/03 09:29:11;;;;;;;48.63;28.77;;;2.20;99.90;;;;;;5073538;28;20501;-71
2023/12/03 09:31:39;;;;;;;48.03;27.92;;;2.20;99.90;;;;;;5073480;28;20044;-71
2023/12/03 09:34:05;;;;;;;49.03;27.75;;;2.20;99.90;;;;;;5073493;28;20501;-71
2023/12/03 09:36:31;;;;;;;53.17;28.50;;;2.20;99.90;;;;;;5073427;28;20045;-71
2023/12/03 09:38:56;;;;;;;45.83;26.67;;;2.20;99.90;;;;;;5073577;28;20034;-71
2023/12/03 09:41:24;;;;;;;47.70;28.90;;;2.20;99.90;;;;;;5074845;28;20538;-71
2023/12/03 09:43:53;;;;;;;46.85;27.88;;;2.30;99.90;;;;;;5074809;28;20111;-71
2023/12/03 09:46:22;;;;;;;46.63;27.90;;;2.40;99.90;;;;;;5073211;28;20093;-71
2023/12/03 09:48:48;;;;;;;49.05;28.75;;;2.50;99.90;;;;;;5073366;28;20086;-71
2023/12/03 09:51:15;;;;;;;43.55;28.48;;;2.60;99.90;;;;;;5056634;28;20051;-71
2023/12/03 09:53:44;;;;;;;40.67;26.90;;;2.70;99.90;;;;;;5074518;28;20513;-71
2023/12/03 09:56:12;;;;;;;39.35;27.40;;;2.70;99.90;;;;;;5073020;28;20075;-71
2023/12/03 09:58:38;;;;;;;44.25;27.42;;;2.70;99.90;;;;;;5073520;28;20493;-70
2023/12/03 10:01:04;;;;;;;43.13;27.70;;;2.70;99.90;;;;;;5074014;28;20520;-71
2023/12/03 10:03:30;;;;;;;40.60;26.25;;;2.70;99.90;;;;;;5072891;28;20051;-71
2023/12/03 10:05:56;;;;;;;43.25;28.63;;;2.80;99.90;;;;;;5073068;28;20156;-71
2023/12/03 10:08:22;;;;;;;45.67;28.90;;;2.90;99.90;;;;;;5073933;28;20082;-71
2023/12/03 10:10:57;;;;;;;43.15;29.02;;;2.90;99.90;;;;;;5074163;28;20040;-71
2023/12/03 10:13:24;;;;;;;42.70;27.27;;;2.90;99.90;;;;;;5072382;28;20041;-71
2023/12/03 10:15:50;;;;;;;38.17;26.85;;;3.00;99.90;;;;;;5072704;28;20037;-71
2023/12/03 10:18:16;;;;;;;39.42;27.23;;;3.00;99.90;;;;;;5074090;28;20067;-71
2023/12/03 10:20:42;;;;;;;39.88;27.45;;;3.10;99.90;;;;;;5072747;28;20033;-71
2023/12/03 10:23:16;;;;;;;39.53;26.83;;;3.10;99.90;;;;;;5072687;28;20520;-71
2023/12/03 10:25:41;;;;;;;40.72;27.08;;;3.10;99.90;;;;;;5072487;28;20101;-71
2023/12/03 10:28:08;;;;;;;39.25;26.35;;;3.10;99.90;;;;;;5055867;28;20040;-71
2023/12/03 10:30:36;;;;;;;36.88;24.33;;;3.10;99.90;;;;;;5072582;28;20045;-71
2023/12/03 10:33:05;;;;;;;35.80;24.73;;;3.10;99.90;;;;;;5072266;28;20095;-71
2023/12/03 10:35:36;;;;;;;39.00;26.65;;;3.20;99.90;;;;;;5072570;28;20128;-71
2023/12/03 10:38:05;;;;;;;36.10;24.80;;;3.20;99.90;;;;;;5072265;28;20036;-71
2023/12/03 10:40:33;;;;;;;39.13;26.95;;;3.20;99.90;;;;;;5073374;28;20524;-71
2023/12/03 10:43:01;;;;;;;38.45;25.58;;;3.20;99.90;;;;;;5072402;28;20067;-71
2023/12/03 10:45:28;;;;;;;38.25;26.08;;;3.20;99.90;;;;;;5072146;28;20083;-71
2023/12/03 10:47:59;;;;;;;33.42;24.25;;;3.30;99.90;;;;;;5072122;28;20093;-71
2023/12/03 10:50:27;;;;;;;35.88;23.80;;;3.40;99.90;;;;;;5072081;28;20493;-71
2023/12/03 10:52:54;;;;;;;31.92;23.17;;;3.50;99.90;;;;;;5073464;28;20040;-71
2023/12/03 10:55:20;;;;;;;36.55;23.48;;;3.50;99.90;;;;;;5072320;28;20105;-71
2023/12/03 10:57:58;;;;;;;33.80;24.50;;;3.50;99.90;;;;;;5072023;28;20382;-71
2023/12/03 11:00:29;;;;;;;32.58;23.88;;;3.50;99.90;;;;;;5071920;28;20076;-71
2023/12/03 11:03:08;;;;;;;33.53;23.02;;;3.30;99.90;;;;;;5055267;28;20086;-71
2023/12/03 11:05:50;;;;;;;35.63;24.27;;;3.20;99.90;;;;;;5073428;28;20098;-71
2023/12/03 11:08:16;;;;;;;32.70;22.20;;;3.10;99.90;;;;;;5073091;28;20461;-71
2023/12/03 11:10:42;;;;;;;31.92;21.67;;;3.00;99.90;;;;;;5073333;28;20120;-71
2023/12/03 11:13:09;;;;;;;31.67;21.65;;;2.90;99.90;;;;;;5073255;28;20393;-71
2023/12/03 11:15:36;;;;;;;29.95;20.35;;;2.80;99.90;;;;;;5073346;28;20091;-71
2023/12/03 11:18:03;;;;;;;31.00;20.58;;;2.80;99.90;;;;;;5072964;28;20400;-71
2023/12/03 11:20:35;;;;;;;27.52;19.65;;;2.70;99.90;;;;;;5071734;28;20079;-71
2023/12/03 11:23:09;;;;;;;28.98;19.65;;;2.60;99.90;;;;;;5071918;28;20512;-71
2023/12/03 11:25:42;;;;;;;32.80;21.27;;;2.60;99.90;;;;;;5076116;28;20040;-71
2023/12/03 11:28:08;;;;;;;30.83;20.10;;;2.50;99.90;;;;;;5077441;28;20080;-71
2023/12/03 11:30:42;;;;;;;30.48;19.63;;;2.50;99.90;;;;;;5075800;28;20083;-71
2023/12/03 11:33:21;;;;;;;32.35;21.50;;;2.40;99.90;;;;;;5075698;28;20524;-71
2023/12/03 11:35:48;;;;;;;31.73;20.42;;;2.40;99.90;;;;;;5075754;28;20562;-71
2023/12/03 11:38:24;;;;;;;36.13;21.65;;;2.30;99.90;;;;;;5075721;28;20085;-71
2023/12/03 11:40:50;;;;;;;35.22;21.98;;;2.20;99.90;;;;;;5075857;28;20135;-71
2023/12/03 11:43:28;;;;;;;34.58;20.42;;;2.10;99.90;;;;;;5075584;28;20102;-71
2023/12/03 11:45:54;;;;;;;33.00;21.30;;;2.10;99.90;;;;;;5077070;28;20032;-71
2023/12/03 11:48:21;;;;;;;35.72;21.88;;;2.10;99.90;;;;;;5075757;28;20036;-71
2023/12/03 11:50:48;;;;;;;36.42;22.45;;;2.10;99.90;;;;;;5076421;28;20098;-71
2023/12/03 11:53:15;;;;;;;35.22;21.83;;;2.10;99.90;;;;;;5075391;28;20501;-71
2023/12/03 11:55:51;;;;;;;35.75;22.90;;;2.10;99.90;;;;;;5076867;28;20037;-71
2023/12/03 11:58:17;;;;;;;36.70;22.88;;;2.00;99.90;;;;;;5075330;28;20036;-71
2023/12/03 12:00:45;;;;;;;36.17;22.95;;;2.00;99.90;;;;;;5075188;28;20044;-71
2023/12/03 12:03:11;;;;;;;38.40;23.67;;;2.10;99.90;;;;;;5075187;28;20044;-71
2023/12/03 12:05:47;;;;;;;39.35;24.17;;;2.20;99.90;;;;;;5075721;28;20036;-71
2023/12/03 12:08:21;;;;;;;39.80;23.95;;;2.20;99.90;;;;;;5076610;28;20115;-71
2023/12/03 12:10:47;;;;;;;42.03;24.67;;;2.20;99.90;;;;;;5075009;28;20497;-71
2023/12/03 12:13:14;;;;;;;44.03;24.83;;;2.20;99.90;;;;;;5074900;28;20082;-71
2023/12/03 12:15:41;;;;;;;43.85;26.50;;;2.30;99.90;;;;;;5076459;28;20037;-71
2023/12/03 12:18:06;;;;;;;46.78;27.00;;;2.40;99.90;;;;;;5075699;28;20033;-71
2023/12/03 12:20:32;;;;;;;42.85;26.02;;;2.50;99.90;;;;;;5074846;28;20039;-70
2023/12/03 12:22:58;;;;;;;47.90;25.63;;;2.60;99.90;;;;;;5076106;28;20131;-70
2023/12/03 12:25:25;;;;;;;43.15;26.35;;;3.00;99.90;;;;;;5074851;28;20068;-70
2023/12/03 12:27:52;;;;;;;41.90;25.50;;;3.70;99.90;;;;;;5074645;28;20040;-71
2023/12/03 12:30:22;;;;;;;40.33;23.77;;;4.60;99.90;;;;;;5076168;28;20055;-71